createdAt,value
2022-07-29T00:02:16.712Z,15.98
2022-07-29T00:04:43.652Z,16.10
2022-07-29T00:07:10.581Z,16.26
2022-07-29T00:09:50.990Z,16.30
2022-07-29T00:12:25.560Z,16.06
2022-07-29T00:14:55.278Z,16.09
2022-07-29T00:17:22.557Z,16.11
2022-07-29T00:19:49.435Z,15.98
2022-07-29T00:22:16.153Z,16.09
2022-07-29T00:24:42.976Z,16.37
2022-07-29T00:27:09.683Z,16.90
2022-07-29T00:29:36.395Z,16.16
2022-07-29T00:32:03.673Z,16.14
2022-07-29T00:34:49.691Z,15.86
2022-07-29T00:37:16.684Z,15.71
2022-07-29T00:39:43.975Z,15.47
2022-07-29T00:42:10.928Z,15.50
2022-07-29T00:44:42.305Z,15.68
2022-07-29T00:47:09.722Z,15.64
2022-07-29T00:49:36.837Z,15.48
2022-07-29T00:52:05.547Z,15.45
2022-07-29T00:54:33.836Z,15.42
2022-07-29T00:57:01.148Z,15.37
2022-07-29T00:59:34.547Z,15.44
2022-07-29T01:02:05.236Z,15.40
2022-07-29T01:04:32.349Z,15.59
2022-07-29T01:06:59.598Z,15.40
2022-07-29T01:09:45.194Z,15.70
2022-07-29T01:12:27.128Z,15.45
2022-07-29T01:14:55.860Z,15.48
2022-07-29T01:17:33.167Z,15.41
2022-07-29T01:20:07.856Z,15.36
2022-07-29T01:23:13.182Z,15.58
2022-07-29T01:26:20.430Z,15.67
2022-07-29T01:28:59.428Z,15.55
2022-07-29T01:31:36.581Z,15.49
2022-07-29T01:34:09.740Z,15.24
2022-07-29T01:36:44.103Z,15.05
2022-07-29T01:39:26.917Z,15.20
2022-07-29T01:42:10.953Z,15.25
2022-07-29T01:45:04.340Z,15.17
2022-07-29T01:47:38.354Z,15.21
2022-07-29T01:50:09.632Z,15.51
2022-07-29T01:52:38.828Z,15.24
2022-07-29T01:55:14.486Z,15.38
2022-07-29T01:57:43.942Z,15.41
2022-07-29T02:00:11.733Z,15.44
2022-07-29T02:02:42.180Z,15.59
2022-07-29T02:05:12.746Z,15.45
2022-07-29T02:07:42.947Z,15.49
2022-07-29T02:10:11.546Z,15.57
2022-07-29T02:12:39.964Z,15.36
2022-07-29T02:15:08.001Z,15.28
2022-07-29T02:17:46.080Z,15.44
2022-07-29T02:20:13.519Z,15.49
2022-07-29T02:22:42.281Z,15.42
2022-07-29T02:25:14.044Z,15.40
2022-07-29T02:27:42.486Z,15.30
2022-07-29T02:30:11.095Z,15.45
2022-07-29T02:32:40.781Z,15.70
2022-07-29T02:35:09.641Z,16.37
2022-07-29T02:37:37.928Z,15.81
2022-07-29T02:40:07.221Z,15.74
2022-07-29T02:42:37.306Z,16.02
2022-07-29T02:45:05.548Z,15.57
2022-07-29T02:47:41.545Z,15.67
2022-07-29T02:50:36.372Z,15.85
2022-07-29T02:53:13.725Z,16.14
2022-07-29T02:55:58.025Z,16.06
2022-07-29T02:58:33.355Z,16.09
2022-07-29T03:01:08.926Z,16.09
2022-07-29T03:03:39.013Z,16.17
2022-07-29T03:06:07.490Z,16.12
2022-07-29T03:08:35.817Z,16.17
2022-07-29T03:11:03.141Z,15.83
2022-07-29T03:13:30.732Z,15.56
2022-07-29T03:15:58.848Z,15.72
2022-07-29T03:18:26.848Z,15.58
2022-07-29T03:20:54.025Z,15.76
2022-07-29T03:23:23.598Z,15.67
2022-07-29T03:25:54.387Z,16.31
2022-07-29T03:28:21.653Z,16.33
2022-07-29T03:30:49.287Z,16.15
2022-07-29T03:33:16.447Z,16.07
2022-07-29T03:35:43.284Z,15.62
2022-07-29T03:38:09.927Z,15.76
2022-07-29T03:40:44.320Z,15.77
2022-07-29T03:43:12.776Z,15.35
2022-07-29T03:45:42.944Z,15.46
2022-07-29T03:48:13.786Z,15.25
2022-07-29T03:50:40.984Z,15.25
2022-07-29T03:53:08.694Z,15.72
2022-07-29T03:55:42.050Z,15.62
2022-07-29T03:58:09.771Z,15.47
2022-07-29T04:00:38.480Z,15.48
2022-07-29T04:03:06.051Z,15.57
2022-07-29T04:05:38.002Z,15.66
2022-07-29T04:08:04.904Z,15.68
2022-07-29T04:10:34.029Z,15.69
2022-07-29T04:13:02.414Z,15.82
2022-07-29T04:15:31.536Z,15.79
2022-07-29T04:17:59.699Z,15.70
2022-07-29T04:20:26.827Z,15.74
2022-07-29T04:22:53.491Z,16.28
2022-07-29T04:25:20.186Z,16.43
2022-07-29T04:28:02.254Z,16.25
2022-07-29T04:30:29.963Z,15.50
2022-07-29T04:32:56.738Z,15.42
2022-07-29T04:35:23.518Z,15.76
2022-07-29T04:37:50.277Z,15.67
2022-07-29T04:40:17.071Z,15.63
2022-07-29T04:42:47.248Z,15.58
2022-07-29T04:45:15.243Z,15.88
2022-07-29T04:47:42.924Z,15.78
2022-07-29T04:50:10.688Z,16.08
2022-07-29T04:52:37.954Z,16.42
2022-07-29T04:55:06.525Z,15.84
2022-07-29T04:57:33.304Z,15.93
2022-07-29T05:00:00.083Z,15.83
2022-07-29T05:02:26.848Z,15.74
2022-07-29T05:04:53.741Z,16.28
2022-07-29T05:07:20.726Z,16.52
2022-07-29T05:09:48.310Z,16.65
2022-07-29T05:12:14.925Z,16.63
2022-07-29T05:14:41.658Z,16.64
2022-07-29T05:17:08.556Z,16.63
2022-07-29T05:19:39.332Z,16.61
2022-07-29T05:22:06.952Z,16.41
2022-07-29T05:24:33.711Z,16.54
2022-07-29T05:27:00.701Z,16.44
2022-07-29T05:29:44.194Z,16.65
2022-07-29T05:32:13.435Z,16.75
2022-07-29T05:34:51.202Z,16.73
2022-07-29T05:37:21.565Z,16.29
2022-07-29T05:39:50.411Z,16.35
2022-07-29T05:42:23.150Z,16.11
2022-07-29T05:44:49.960Z,16.11
2022-07-29T05:47:16.994Z,16.29
2022-07-29T05:49:44.184Z,16.27
2022-07-29T05:52:11.133Z,16.15
2022-07-29T05:54:37.845Z,16.75
2022-07-29T05:57:04.672Z,16.44
2022-07-29T05:59:31.369Z,16.85
2022-07-29T06:01:58.675Z,16.99
2022-07-29T06:04:25.851Z,17.12
2022-07-29T06:06:52.840Z,17.25
2022-07-29T06:09:19.689Z,17.21
2022-07-29T06:11:46.404Z,16.83
2022-07-29T06:14:13.262Z,16.97
2022-07-29T06:16:40.198Z,16.75
2022-07-29T06:19:07.260Z,16.75
2022-07-29T06:21:34.596Z,17.25
2022-07-29T06:24:05.955Z,17.43
2022-07-29T06:26:35.302Z,17.30
2022-07-29T06:29:06.882Z,17.63
2022-07-29T06:31:33.764Z,18.31
2022-07-29T06:34:00.913Z,18.55
2022-07-29T06:36:28.016Z,18.44
2022-07-29T06:38:54.664Z,18.45
2022-07-29T06:41:23.986Z,18.22
2022-07-29T06:43:54.551Z,18.20
2022-07-29T06:46:24.047Z,18.54
2022-07-29T06:48:52.577Z,18.29
2022-07-29T06:51:22.816Z,18.41
2022-07-29T06:54:00.217Z,18.33
2022-07-29T06:56:38.193Z,18.69
2022-07-29T06:59:10.240Z,18.88
2022-07-29T07:01:38.618Z,19.11
2022-07-29T07:04:05.419Z,18.47
2022-07-29T07:06:32.165Z,18.90
2022-07-29T07:08:58.917Z,18.84
2022-07-29T07:11:25.925Z,18.93
2022-07-29T07:13:52.628Z,19.21
2022-07-29T07:16:19.469Z,19.83
2022-07-29T07:18:46.474Z,19.70
2022-07-29T07:21:18.894Z,19.59
2022-07-29T07:23:47.062Z,20.06
2022-07-29T07:26:13.817Z,20.04
2022-07-29T07:28:40.491Z,19.97
2022-07-29T07:31:07.334Z,19.69
2022-07-29T07:33:34.035Z,19.67
2022-07-29T07:36:00.772Z,20.27
2022-07-29T07:38:27.600Z,20.40
2022-07-29T07:40:55.568Z,20.74
2022-07-29T07:43:22.871Z,20.91
2022-07-29T07:45:49.621Z,20.75
2022-07-29T07:48:16.389Z,19.93
2022-07-29T07:50:44.590Z,19.71
2022-07-29T07:53:11.772Z,19.55
2022-07-29T07:58:30.256Z,20.60
2022-07-29T08:00:56.998Z,20.86
2022-07-29T08:03:23.667Z,21.04
2022-07-29T08:05:52.652Z,21.23
2022-07-29T08:08:19.456Z,21.46
2022-07-29T08:11:00.619Z,21.29
2022-07-29T08:13:31.184Z,21.68
2022-07-29T08:15:59.167Z,21.71
2022-07-29T08:18:31.115Z,21.80
2022-07-29T08:20:59.569Z,22.02
2022-07-29T08:23:32.978Z,22.01
2022-07-29T08:26:13.855Z,21.60
2022-07-29T08:28:42.615Z,21.82
2022-07-29T08:31:09.273Z,21.34
2022-07-29T08:33:35.968Z,21.34
2022-07-29T08:36:02.735Z,21.46
2022-07-29T08:38:29.388Z,21.37
2022-07-29T08:40:56.577Z,21.53
2022-07-29T08:43:23.835Z,21.83
2022-07-29T08:45:52.073Z,22.38
2022-07-29T08:48:22.275Z,21.99
2022-07-29T08:50:53.296Z,22.21
2022-07-29T08:53:20.037Z,22.21
2022-07-29T08:55:49.069Z,22.24
2022-07-29T08:58:17.750Z,22.86
2022-07-29T09:00:54.137Z,23.19
2022-07-29T09:03:25.213Z,23.15
2022-07-29T09:05:52.843Z,23.48
2022-07-29T09:08:20.988Z,23.94
2022-07-29T09:10:48.103Z,23.75
2022-07-29T09:13:14.813Z,23.65
2022-07-29T09:15:41.589Z,23.82
2022-07-29T09:18:08.278Z,23.49
2022-07-29T09:21:13.708Z,23.59
2022-07-29T09:23:42.593Z,23.92
2022-07-29T09:26:09.356Z,23.09
2022-07-29T09:28:43.470Z,23.01
2022-07-29T09:31:10.357Z,22.47
2022-07-29T09:33:40.073Z,22.78
2022-07-29T09:36:10.806Z,21.96
2022-07-29T09:38:38.267Z,22.50
2022-07-29T09:41:06.824Z,22.83
2022-07-29T09:43:35.061Z,22.21
2022-07-29T09:46:12.893Z,21.84
2022-07-29T09:48:39.760Z,21.99
2022-07-29T09:51:07.427Z,21.85
2022-07-29T09:53:38.575Z,21.80
2022-07-29T09:56:06.139Z,21.35
2022-07-29T09:58:36.518Z,20.45
2022-07-29T10:01:04.176Z,20.34
2022-07-29T10:03:31.079Z,20.99
2022-07-29T10:06:11.560Z,20.65
2022-07-29T10:08:39.089Z,21.71
2022-07-29T10:11:11.875Z,21.40
2022-07-29T10:13:39.289Z,21.69
2022-07-29T10:16:07.230Z,21.91
2022-07-29T10:18:34.818Z,21.39
2022-07-29T10:21:02.176Z,21.60
2022-07-29T10:23:30.848Z,21.80
2022-07-29T10:26:15.583Z,21.53
2022-07-29T10:28:42.572Z,21.45
2022-07-29T10:31:32.804Z,22.01
2022-07-29T10:34:26.415Z,22.22
2022-07-29T10:37:15.252Z,22.86
2022-07-29T10:39:51.179Z,23.38
2022-07-29T10:42:29.782Z,23.35
2022-07-29T10:45:04.606Z,23.10
2022-07-29T10:47:31.773Z,22.94
2022-07-29T10:50:01.127Z,22.70
2022-07-29T10:52:58.395Z,22.63
2022-07-29T10:55:43.725Z,23.03
2022-07-29T10:58:15.344Z,22.87
2022-07-29T11:00:42.149Z,21.75
2022-07-29T11:03:50.277Z,22.72
2022-07-29T11:06:26.278Z,22.76
2022-07-29T11:09:20.121Z,22.72
2022-07-29T11:11:52.284Z,22.41
2022-07-29T11:14:59.999Z,22.47
2022-07-29T11:17:26.982Z,22.37
2022-07-29T11:20:32.283Z,22.30
2022-07-29T11:22:59.568Z,22.56
2022-07-29T11:25:50.866Z,22.29
2022-07-29T11:28:23.124Z,22.54
2022-07-29T11:31:11.787Z,22.67
2022-07-29T11:33:55.842Z,21.90
2022-07-29T11:36:28.090Z,22.13
2022-07-29T11:39:37.059Z,21.96
2022-07-29T11:42:32.490Z,21.80
2022-07-29T11:45:41.415Z,21.67
2022-07-29T11:48:32.082Z,21.26
2022-07-29T11:50:53.658Z,21.94
2022-07-29T11:53:20.924Z,22.32
2022-07-29T11:55:55.466Z,22.46
2022-07-29T11:58:27.068Z,21.78
2022-07-29T12:00:55.164Z,21.74
2022-07-29T12:03:32.806Z,21.89
2022-07-29T12:06:02.743Z,22.21
2022-07-29T12:08:30.403Z,22.19
2022-07-29T12:10:57.180Z,22.70
2022-07-29T12:13:37.709Z,23.00
2022-07-29T12:16:05.332Z,23.10
2022-07-29T12:18:32.750Z,23.38
2022-07-29T12:21:03.396Z,23.18
2022-07-29T12:23:34.837Z,23.25
2022-07-29T12:26:07.499Z,23.25
2022-07-29T12:28:39.329Z,23.01
2022-07-29T12:31:06.199Z,22.57
2022-07-29T12:33:35.892Z,22.78
2022-07-29T12:36:10.457Z,21.32
2022-07-29T12:38:41.941Z,22.25
2022-07-29T12:41:08.813Z,22.00
2022-07-29T12:43:35.553Z,21.87
2022-07-29T12:46:13.781Z,21.99
2022-07-29T12:48:42.774Z,21.82
2022-07-29T12:51:11.058Z,21.83
2022-07-29T12:53:38.237Z,21.97
2022-07-29T12:56:20.800Z,22.13
2022-07-29T12:58:53.415Z,22.33
2022-07-29T13:01:21.738Z,21.95
2022-07-29T13:04:01.460Z,22.01
2022-07-29T13:06:28.725Z,22.02
2022-07-29T13:09:06.642Z,22.12
2022-07-29T13:11:54.137Z,21.69
2022-07-29T13:14:53.480Z,21.57
2022-07-29T13:17:23.982Z,20.85
2022-07-29T13:34:12.050Z,18.12
2022-07-29T13:36:41.549Z,17.48
2022-07-29T13:39:08.457Z,16.83
2022-07-29T13:41:35.084Z,16.97
2022-07-29T13:44:01.713Z,16.94
2022-07-29T13:46:28.509Z,16.98
2022-07-29T13:48:55.258Z,17.04
2022-07-29T13:51:22.061Z,16.69
2022-07-29T13:53:48.714Z,16.86
2022-07-29T13:56:15.469Z,16.63
2022-07-29T13:58:42.238Z,16.54
2022-07-29T14:01:09.898Z,16.68
2022-07-29T14:03:39.207Z,17.71
2022-07-29T14:06:06.936Z,17.93
2022-07-29T14:08:33.712Z,18.09
2022-07-29T14:11:00.345Z,18.32
2022-07-29T14:13:27.236Z,18.18
2022-07-29T14:15:54.029Z,18.38
2022-07-29T14:18:20.672Z,18.57
2022-07-29T14:20:47.281Z,18.39
2022-07-29T14:23:14.358Z,18.49
2022-07-29T14:25:43.148Z,18.50
2022-07-29T14:28:11.280Z,18.07
2022-07-29T14:30:38.561Z,18.06
2022-07-29T14:33:05.343Z,18.62
2022-07-29T14:35:32.024Z,18.95
2022-07-29T14:37:58.767Z,18.99
2022-07-29T14:40:26.627Z,19.20
2022-07-29T14:42:53.486Z,18.24
2022-07-29T14:45:20.247Z,18.44
2022-07-29T14:47:46.943Z,18.16
2022-07-29T14:50:14.440Z,18.75
2022-07-29T14:52:41.165Z,19.09
2022-07-29T14:55:16.592Z,17.79
2022-07-29T14:57:47.376Z,18.36
2022-07-29T15:00:14.462Z,19.09
2022-07-29T15:03:00.784Z,18.85
2022-07-29T15:05:27.881Z,18.51
2022-07-29T15:07:54.623Z,18.16
2022-07-29T15:10:22.166Z,18.89
2022-07-29T15:12:51.572Z,19.30
2022-07-29T15:15:18.176Z,19.22
2022-07-29T15:17:44.861Z,18.86
2022-07-29T15:20:12.681Z,19.12
2022-07-29T15:22:40.124Z,18.97
2022-07-29T15:25:07.402Z,19.21
2022-07-29T15:27:34.401Z,19.10
2022-07-29T15:30:01.018Z,19.33
2022-07-29T15:32:28.041Z,19.29
2022-07-29T15:34:54.781Z,19.20
2022-07-29T15:37:21.490Z,18.63
2022-07-29T15:39:48.112Z,19.18
2022-07-29T15:42:14.786Z,19.12
2022-07-29T15:44:44.410Z,19.25
2022-07-29T15:47:10.998Z,19.31
2022-07-29T15:49:47.339Z,19.39
2022-07-29T15:52:19.398Z,19.54
2022-07-29T15:54:52.197Z,19.31
2022-07-29T15:57:18.921Z,19.36
2022-07-29T15:59:45.854Z,19.55
2022-07-29T16:02:12.679Z,19.30
2022-07-29T16:04:39.526Z,19.57
2022-07-29T16:07:06.260Z,19.66
2022-07-29T16:09:33.306Z,19.65
2022-07-29T16:11:59.915Z,19.62
2022-07-29T16:14:28.276Z,19.87
2022-07-29T16:16:56.433Z,19.84
2022-07-29T16:19:23.503Z,19.58
2022-07-29T16:21:50.120Z,19.83
2022-07-29T16:24:16.912Z,19.99
2022-07-29T16:26:43.520Z,19.59
2022-07-29T16:29:10.294Z,19.47
2022-07-29T16:31:37.211Z,19.80
2022-07-29T16:34:03.935Z,20.79
2022-07-29T16:36:30.532Z,21.59
2022-07-29T16:38:57.394Z,23.45
2022-07-29T16:41:24.154Z,25.15
2022-07-29T16:43:50.755Z,22.83
2022-07-29T16:46:18.796Z,21.38
2022-07-29T16:48:46.248Z,21.35
2022-07-29T16:51:14.262Z,20.93
2022-07-29T16:53:41.758Z,20.94
2022-07-29T16:56:11.833Z,20.19
2022-07-29T16:58:43.539Z,20.64
2022-07-29T17:01:11.323Z,20.82
2022-07-29T17:04:00.227Z,20.75
2022-07-29T17:06:29.655Z,20.46
2022-07-29T17:08:56.923Z,20.08
2022-07-29T17:11:51.543Z,20.46
2022-07-29T17:14:10.953Z,20.42
2022-07-29T17:16:37.658Z,20.21
2022-07-29T17:19:04.820Z,20.08
2022-07-29T17:21:31.585Z,20.01
2022-07-29T17:23:59.431Z,19.67
2022-07-29T17:26:28.032Z,19.64
2022-07-29T17:28:55.385Z,19.75
2022-07-29T17:31:22.411Z,19.94
2022-07-29T17:33:49.217Z,19.93
2022-07-29T17:36:24.901Z,19.13
2022-07-29T17:38:52.883Z,18.75
2022-07-29T17:41:21.088Z,19.13
2022-07-29T17:43:48.759Z,19.46
2022-07-29T17:46:16.239Z,19.27
2022-07-29T17:48:43.169Z,19.00
2022-07-29T17:51:10.088Z,18.88
2022-07-29T17:53:37.592Z,18.90
2022-07-29T17:56:05.592Z,18.78
2022-07-29T17:58:33.275Z,18.86
2022-07-29T18:01:00.362Z,18.82
2022-07-29T18:03:27.437Z,18.86
2022-07-29T18:05:54.243Z,18.96
2022-07-29T18:08:21.072Z,18.61
2022-07-29T18:10:47.876Z,19.37
2022-07-29T18:13:16.276Z,19.29
2022-07-29T18:15:45.127Z,18.67
2022-07-29T18:18:13.563Z,19.06
2022-07-29T18:20:41.161Z,18.52
2022-07-29T18:23:07.833Z,18.31
2022-07-29T18:25:34.860Z,18.20
2022-07-29T18:28:01.605Z,18.02
2022-07-29T18:30:29.600Z,18.06
2022-07-29T18:33:19.611Z,18.21
2022-07-29T18:35:44.704Z,18.26
2022-07-29T18:38:11.427Z,18.14
2022-07-29T18:40:40.005Z,17.94
2022-07-29T18:43:07.398Z,17.97
2022-07-29T18:45:34.775Z,17.97
2022-07-29T18:48:02.380Z,18.06
2022-07-29T18:50:30.036Z,17.91
2022-07-29T18:52:59.028Z,17.80
2022-07-29T18:55:26.505Z,17.62
2022-07-29T18:57:55.883Z,17.44
2022-07-29T19:00:23.988Z,17.30
2022-07-29T19:02:51.106Z,17.22
2022-07-29T19:05:18.283Z,17.09
2022-07-29T19:07:45.151Z,17.10
2022-07-29T19:10:12.210Z,17.24
2022-07-29T19:12:39.134Z,17.07
2022-07-29T19:15:07.509Z,17.02
2022-07-29T19:17:34.252Z,16.95
2022-07-29T19:20:01.008Z,16.81
2022-07-29T19:22:27.746Z,17.10
2022-07-29T19:24:54.475Z,16.97
2022-07-29T19:27:21.145Z,16.76
2022-07-29T19:29:47.814Z,16.69
2022-07-29T19:32:14.621Z,16.47
2022-07-29T19:35:11.108Z,16.43
2022-07-29T19:37:37.827Z,16.33
2022-07-29T19:40:06.285Z,16.22
2022-07-29T19:42:33.025Z,16.39
2022-07-29T19:44:59.951Z,16.17
2022-07-29T19:47:26.684Z,15.96
2022-07-29T19:49:53.301Z,16.00
2022-07-29T19:52:20.015Z,16.02
2022-07-29T19:54:46.713Z,15.87
2022-07-29T19:57:13.483Z,15.81
2022-07-29T19:59:41.246Z,15.72
2022-07-29T20:02:11.029Z,15.72
2022-07-29T20:04:38.593Z,15.63
2022-07-29T20:07:06.617Z,15.49
2022-07-29T20:09:34.276Z,15.39
2022-07-29T20:12:00.952Z,15.45
2022-07-29T20:14:27.626Z,15.45
2022-07-29T20:16:54.390Z,15.45
2022-07-29T20:19:21.481Z,15.44
2022-07-29T20:21:48.197Z,15.46
2022-07-29T20:24:14.944Z,15.31
2022-07-29T20:26:41.834Z,15.36
2022-07-29T20:29:09.044Z,15.26
2022-07-29T20:31:36.317Z,15.51
2022-07-29T20:34:03.407Z,15.31
2022-07-29T20:36:30.451Z,15.10
2022-07-29T20:38:57.254Z,15.25
2022-07-29T20:41:23.871Z,15.27
2022-07-29T20:43:50.531Z,15.13
2022-07-29T20:46:18.125Z,15.05
2022-07-29T20:48:46.907Z,15.07
2022-07-29T20:51:14.433Z,15.04
2022-07-29T20:53:41.830Z,14.96
2022-07-29T20:56:08.792Z,14.83
2022-07-29T20:58:36.376Z,14.84
2022-07-29T21:01:03.604Z,15.10
2022-07-29T21:03:30.475Z,14.73
2022-07-29T21:05:57.244Z,14.86
2022-07-29T21:08:24.051Z,14.70
2022-07-29T21:10:50.800Z,14.73
2022-07-29T21:13:18.507Z,14.80
2022-07-29T21:15:49.152Z,14.82
2022-07-29T21:18:27.385Z,14.93
2022-07-29T21:20:55.032Z,14.85
2022-07-29T21:23:21.986Z,14.76
2022-07-29T21:25:48.769Z,14.82
2022-07-29T21:28:28.925Z,14.97
2022-07-29T21:31:00.865Z,14.86
2022-07-29T21:33:29.223Z,14.75
2022-07-29T21:36:46.057Z,14.62
2022-07-29T21:38:42.787Z,14.54
2022-07-29T21:41:12.057Z,14.51
2022-07-29T21:43:41.885Z,14.39
2022-07-29T21:46:09.246Z,14.49
2022-07-29T21:48:36.135Z,14.49
2022-07-29T21:51:02.942Z,14.54
2022-07-29T21:53:30.668Z,14.41
2022-07-29T21:55:57.431Z,14.27
2022-07-29T21:58:24.634Z,14.22
2022-07-29T22:00:51.681Z,14.19
2022-07-29T22:03:18.441Z,14.16
2022-07-29T22:05:45.249Z,14.08
2022-07-29T22:08:12.049Z,14.02
2022-07-29T22:10:38.697Z,14.11
2022-07-29T22:13:05.708Z,14.12
2022-07-29T22:15:32.424Z,14.00
2022-07-29T22:17:59.624Z,14.03
2022-07-29T22:20:26.509Z,14.03
2022-07-29T22:22:53.311Z,13.98
2022-07-29T22:25:20.807Z,13.88
2022-07-29T22:27:47.751Z,13.91
2022-07-29T22:30:14.904Z,13.99
2022-07-29T22:32:41.926Z,14.13
2022-07-29T22:35:09.292Z,14.18
2022-07-29T22:37:36.036Z,14.22
2022-07-29T22:40:03.004Z,14.14
2022-07-29T22:42:30.337Z,14.22
2022-07-29T22:44:57.044Z,14.12
2022-07-29T22:47:45.912Z,14.14
2022-07-29T22:50:10.600Z,14.24
2022-07-29T22:52:37.265Z,14.26
2022-07-29T22:55:05.260Z,14.30
2022-07-29T22:57:32.401Z,14.06
2022-07-29T23:00:01.602Z,14.07
2022-07-29T23:02:29.102Z,14.13
2022-07-29T23:04:55.849Z,14.12
2022-07-29T23:07:23.026Z,14.08
2022-07-29T23:09:50.124Z,14.21
2022-07-29T23:12:16.763Z,14.51
2022-07-29T23:14:43.940Z,14.24
2022-07-29T23:17:10.615Z,14.46
2022-07-29T23:19:37.295Z,14.69
2022-07-29T23:22:04.779Z,14.73
2022-07-29T23:24:31.489Z,14.63
2022-07-29T23:26:58.610Z,14.99
2022-07-29T23:29:26.152Z,14.52
2022-07-29T23:31:52.737Z,14.89
2022-07-29T23:34:19.356Z,14.85
2022-07-29T23:36:46.069Z,14.74
2022-07-29T23:39:13.265Z,14.82
2022-07-29T23:41:40.193Z,14.84
2022-07-29T23:44:07.232Z,14.82
2022-07-29T23:46:34.139Z,14.86
2022-07-29T23:49:01.019Z,14.84
2022-07-29T23:51:29.056Z,15.11
2022-07-29T23:53:55.948Z,15.40
2022-07-29T23:56:23.052Z,15.30
2022-07-29T23:58:49.836Z,15.39
